sensor_id;sensor_type;location;lat;lon;timestamp;P1;durP1;ratioP1;P2;durP2;ratioP2
9224;SDS011;4647;48.072;11.616;2022-12-18T00:02:07;58.07;;;29.77;;
9224;SDS011;4647;48.072;11.616;2022-12-18T00:04:36;58.03;;;31.07;;
9224;SDS011;4647;48.072;11.616;2022-12-18T00:07:03;56.93;;;29.70;;
9224;SDS011;4647;48.072;11.616;2022-12-18T00:09:30;55.87;;;30.87;;
9224;SDS011;4647;48.072;11.616;2022-12-18T00:11:57;58.87;;;30.60;;
9224;SDS011;4647;48.072;11.616;2022-12-18T00:14:25;59.03;;;29.97;;
9224;SDS011;4647;48.072;11.616;2022-12-18T00:16:52;60.83;;;30.70;;
9224;SDS011;4647;48.072;11.616;2022-12-18T00:19:19;60.77;;;29.53;;
9224;SDS011;4647;48.072;11.616;2022-12-18T00:21:46;62.30;;;29.73;;
9224;SDS011;4647;48.072;11.616;2022-12-18T00:24:12;60.03;;;29.13;;
9224;SDS011;4647;48.072;11.616;2022-12-18T00:26:39;66.23;;;30.23;;
9224;SDS011;4647;48.072;11.616;2022-12-18T00:29:07;65.13;;;30.30;;
9224;SDS011;4647;48.072;11.616;2022-12-18T00:31:38;61.93;;;30.07;;
9224;SDS011;4647;48.072;11.616;2022-12-18T00:34:04;59.30;;;29.73;;
9224;SDS011;4647;48.072;11.616;2022-12-18T00:36:32;69.47;;;31.73;;
9224;SDS011;4647;48.072;11.616;2022-12-18T00:39:01;64.13;;;29.83;;
9224;SDS011;4647;48.072;11.616;2022-12-18T00:41:29;66.47;;;31.20;;
9224;SDS011;4647;48.072;11.616;2022-12-18T00:44:14;60.63;;;28.60;;
9224;SDS011;4647;48.072;11.616;2022-12-18T00:46:43;62.67;;;29.90;;
9224;SDS011;4647;48.072;11.616;2022-12-18T00:49:11;61.17;;;29.43;;
9224;SDS011;4647;48.072;11.616;2022-12-18T00:51:38;62.20;;;28.80;;
9224;SDS011;4647;48.072;11.616;2022-12-18T00:54:05;60.70;;;29.07;;
9224;SDS011;4647;48.072;11.616;2022-12-18T00:56:32;61.87;;;30.13;;
9224;SDS011;4647;48.072;11.616;2022-12-18T00:58:59;65.20;;;30.67;;
9224;SDS011;4647;48.072;11.616;2022-12-18T01:01:25;63.60;;;30.27;;
9224;SDS011;4647;48.072;11.616;2022-12-18T01:03:54;62.30;;;28.50;;
9224;SDS011;4647;48.072;11.616;2022-12-18T01:06:23;64.60;;;29.57;;
9224;SDS011;4647;48.072;11.616;2022-12-18T01:08:50;64.33;;;30.27;;
9224;SDS011;4647;48.072;11.616;2022-12-18T01:11:18;64.67;;;29.23;;
9224;SDS011;4647;48.072;11.616;2022-12-18T01:13:46;68.73;;;30.27;;
9224;SDS011;4647;48.072;11.616;2022-12-18T01:16:13;67.47;;;31.27;;
9224;SDS011;4647;48.072;11.616;2022-12-18T01:18:41;62.03;;;29.67;;
9224;SDS011;4647;48.072;11.616;2022-12-18T01:21:11;61.60;;;29.27;;
9224;SDS011;4647;48.072;11.616;2022-12-18T01:23:39;60.43;;;29.00;;
9224;SDS011;4647;48.072;11.616;2022-12-18T01:26:14;60.33;;;28.37;;
9224;SDS011;4647;48.072;11.616;2022-12-18T01:28:42;63.10;;;28.63;;
9224;SDS011;4647;48.072;11.616;2022-12-18T01:31:13;63.73;;;30.00;;
9224;SDS011;4647;48.072;11.616;2022-12-18T01:33:42;65.93;;;30.33;;
9224;SDS011;4647;48.072;11.616;2022-12-18T01:36:16;68.67;;;32.23;;
9224;SDS011;4647;48.072;11.616;2022-12-18T01:38:44;64.67;;;29.90;;
9224;SDS011;4647;48.072;11.616;2022-12-18T01:41:11;68.07;;;30.93;;
9224;SDS011;4647;48.072;11.616;2022-12-18T01:43:46;65.73;;;30.47;;
9224;SDS011;4647;48.072;11.616;2022-12-18T01:46:16;70.03;;;32.07;;
9224;SDS011;4647;48.072;11.616;2022-12-18T01:48:45;69.00;;;31.97;;
9224;SDS011;4647;48.072;11.616;2022-12-18T01:51:16;69.70;;;31.27;;
9224;SDS011;4647;48.072;11.616;2022-12-18T01:53:43;71.30;;;31.93;;
9224;SDS011;4647;48.072;11.616;2022-12-18T01:56:12;66.90;;;31.80;;
9224;SDS011;4647;48.072;11.616;2022-12-18T01:58:43;72.13;;;32.80;;
9224;SDS011;4647;48.072;11.616;2022-12-18T02:01:16;66.63;;;31.70;;
9224;SDS011;4647;48.072;11.616;2022-12-18T02:03:44;79.37;;;33.30;;
9224;SDS011;4647;48.072;11.616;2022-12-18T02:06:13;67.97;;;32.03;;
9224;SDS011;4647;48.072;11.616;2022-12-18T02:08:48;72.07;;;33.60;;
9224;SDS011;4647;48.072;11.616;2022-12-18T02:11:27;69.27;;;30.57;;
9224;SDS011;4647;48.072;11.616;2022-12-18T02:14:04;73.40;;;32.93;;
9224;SDS011;4647;48.072;11.616;2022-12-18T02:16:42;72.13;;;32.50;;
9224;SDS011;4647;48.072;11.616;2022-12-18T02:19:19;75.10;;;33.23;;
9224;SDS011;4647;48.072;11.616;2022-12-18T02:22:00;78.20;;;33.53;;
9224;SDS011;4647;48.072;11.616;2022-12-18T02:24:38;77.47;;;34.70;;
9224;SDS011;4647;48.072;11.616;2022-12-18T02:27:13;80.60;;;33.90;;
9224;SDS011;4647;48.072;11.616;2022-12-18T02:29:42;73.30;;;33.70;;
9224;SDS011;4647;48.072;11.616;2022-12-18T02:32:13;79.23;;;34.63;;
9224;SDS011;4647;48.072;11.616;2022-12-18T02:34:42;75.93;;;32.50;;
9224;SDS011;4647;48.072;11.616;2022-12-18T02:37:11;79.40;;;36.27;;
9224;SDS011;4647;48.072;11.616;2022-12-18T02:39:41;80.40;;;35.33;;
9224;SDS011;4647;48.072;11.616;2022-12-18T02:42:10;77.77;;;33.87;;
9224;SDS011;4647;48.072;11.616;2022-12-18T02:44:43;78.43;;;33.87;;
9224;SDS011;4647;48.072;11.616;2022-12-18T02:47:11;80.17;;;35.20;;
9224;SDS011;4647;48.072;11.616;2022-12-18T02:49:42;77.40;;;33.97;;
9224;SDS011;4647;48.072;11.616;2022-12-18T02:52:23;76.87;;;34.53;;
9224;SDS011;4647;48.072;11.616;2022-12-18T02:55:00;75.03;;;34.13;;
9224;SDS011;4647;48.072;11.616;2022-12-18T02:57:37;80.43;;;34.90;;
9224;SDS011;4647;48.072;11.616;2022-12-18T03:00:12;79.63;;;34.03;;
9224;SDS011;4647;48.072;11.616;2022-12-18T03:02:44;75.87;;;33.37;;
9224;SDS011;4647;48.072;11.616;2022-12-18T03:05:16;88.17;;;36.97;;
9224;SDS011;4647;48.072;11.616;2022-12-18T03:07:47;80.87;;;35.43;;
9224;SDS011;4647;48.072;11.616;2022-12-18T03:10:19;78.97;;;34.90;;
9224;SDS011;4647;48.072;11.616;2022-12-18T03:12:51;77.13;;;35.93;;
9224;SDS011;4647;48.072;11.616;2022-12-18T03:15:23;75.70;;;34.63;;
9224;SDS011;4647;48.072;11.616;2022-12-18T03:17:55;73.40;;;33.97;;
9224;SDS011;4647;48.072;11.616;2022-12-18T03:20:27;73.27;;;32.90;;
9224;SDS011;4647;48.072;11.616;2022-12-18T03:22:59;69.70;;;32.90;;
9224;SDS011;4647;48.072;11.616;2022-12-18T03:25:32;76.33;;;34.80;;
9224;SDS011;4647;48.072;11.616;2022-12-18T03:28:02;67.93;;;33.70;;
9224;SDS011;4647;48.072;11.616;2022-12-18T03:30:34;75.87;;;34.23;;
9224;SDS011;4647;48.072;11.616;2022-12-18T03:33:05;76.10;;;35.40;;
9224;SDS011;4647;48.072;11.616;2022-12-18T03:35:37;74.63;;;34.17;;
9224;SDS011;4647;48.072;11.616;2022-12-18T03:38:07;79.07;;;33.50;;
9224;SDS011;4647;48.072;11.616;2022-12-18T03:40:40;75.00;;;33.27;;
9224;SDS011;4647;48.072;11.616;2022-12-18T03:43:18;70.67;;;34.17;;
9224;SDS011;4647;48.072;11.616;2022-12-18T03:45:52;74.43;;;32.30;;
9224;SDS011;4647;48.072;11.616;2022-12-18T03:48:26;75.50;;;35.20;;
9224;SDS011;4647;48.072;11.616;2022-12-18T03:51:00;81.13;;;36.40;;
9224;SDS011;4647;48.072;11.616;2022-12-18T03:53:33;75.63;;;36.10;;
9224;SDS011;4647;48.072;11.616;2022-12-18T03:56:04;70.27;;;33.77;;
9224;SDS011;4647;48.072;11.616;2022-12-18T03:58:33;67.80;;;31.33;;
9224;SDS011;4647;48.072;11.616;2022-12-18T04:01:03;70.17;;;32.60;;
9224;SDS011;4647;48.072;11.616;2022-12-18T04:03:33;68.63;;;34.13;;
9224;SDS011;4647;48.072;11.616;2022-12-18T04:06:01;74.70;;;33.57;;
9224;SDS011;4647;48.072;11.616;2022-12-18T04:08:29;74.63;;;34.03;;
9224;SDS011;4647;48.072;11.616;2022-12-18T04:10:56;74.03;;;33.87;;
9224;SDS011;4647;48.072;11.616;2022-12-18T04:13:23;72.63;;;34.70;;
9224;SDS011;4647;48.072;11.616;2022-12-18T04:15:53;73.90;;;32.63;;
9224;SDS011;4647;48.072;11.616;2022-12-18T04:18:21;72.53;;;33.73;;
9224;SDS011;4647;48.072;11.616;2022-12-18T04:20:48;74.63;;;33.60;;
9224;SDS011;4647;48.072;11.616;2022-12-18T04:23:15;66.63;;;32.83;;
9224;SDS011;4647;48.072;11.616;2022-12-18T04:25:42;67.30;;;32.47;;
9224;SDS011;4647;48.072;11.616;2022-12-18T04:28:09;68.40;;;32.17;;
9224;SDS011;4647;48.072;11.616;2022-12-18T04:30:36;73.67;;;35.20;;
9224;SDS011;4647;48.072;11.616;2022-12-18T04:33:03;66.93;;;32.73;;
9224;SDS011;4647;48.072;11.616;2022-12-18T04:35:31;65.87;;;30.60;;
9224;SDS011;4647;48.072;11.616;2022-12-18T04:37:58;65.27;;;31.17;;
9224;SDS011;4647;48.072;11.616;2022-12-18T04:40:27;60.80;;;30.73;;
9224;SDS011;4647;48.072;11.616;2022-12-18T04:42:54;66.10;;;31.83;;
9224;SDS011;4647;48.072;11.616;2022-12-18T04:45:21;59.37;;;30.50;;
9224;SDS011;4647;48.072;11.616;2022-12-18T04:47:48;61.50;;;30.40;;
9224;SDS011;4647;48.072;11.616;2022-12-18T04:50:15;60.90;;;30.13;;
9224;SDS011;4647;48.072;11.616;2022-12-18T04:52:43;57.60;;;30.67;;
9224;SDS011;4647;48.072;11.616;2022-12-18T04:55:10;59.43;;;28.80;;
9224;SDS011;4647;48.072;11.616;2022-12-18T04:57:36;63.33;;;31.07;;
9224;SDS011;4647;48.072;11.616;2022-12-18T05:00:04;57.47;;;29.17;;
9224;SDS011;4647;48.072;11.616;2022-12-18T05:02:31;54.70;;;27.80;;
9224;SDS011;4647;48.072;11.616;2022-12-18T05:04:58;61.23;;;28.00;;
9224;SDS011;4647;48.072;11.616;2022-12-18T05:07:26;54.20;;;27.27;;
9224;SDS011;4647;48.072;11.616;2022-12-18T05:09:54;55.63;;;27.60;;
9224;SDS011;4647;48.072;11.616;2022-12-18T05:12:23;56.67;;;28.87;;
9224;SDS011;4647;48.072;11.616;2022-12-18T05:14:50;61.20;;;29.80;;
9224;SDS011;4647;48.072;11.616;2022-12-18T05:17:17;60.53;;;30.47;;
9224;SDS011;4647;48.072;11.616;2022-12-18T05:19:44;62.83;;;30.43;;
9224;SDS011;4647;48.072;11.616;2022-12-18T05:22:10;55.07;;;29.73;;
9224;SDS011;4647;48.072;11.616;2022-12-18T05:24:38;55.70;;;28.53;;
9224;SDS011;4647;48.072;11.616;2022-12-18T05:27:06;62.83;;;31.00;;
9224;SDS011;4647;48.072;11.616;2022-12-18T05:29:33;57.87;;;28.93;;
9224;SDS011;4647;48.072;11.616;2022-12-18T05:31:59;54.13;;;27.27;;
9224;SDS011;4647;48.072;11.616;2022-12-18T05:34:26;57.27;;;28.77;;
9224;SDS011;4647;48.072;11.616;2022-12-18T05:36:53;52.47;;;27.57;;
9224;SDS011;4647;48.072;11.616;2022-12-18T05:39:20;49.17;;;27.43;;
9224;SDS011;4647;48.072;11.616;2022-12-18T05:41:47;54.03;;;27.63;;
9224;SDS011;4647;48.072;11.616;2022-12-18T05:44:15;52.97;;;27.13;;
9224;SDS011;4647;48.072;11.616;2022-12-18T05:46:42;52.23;;;27.43;;
9224;SDS011;4647;48.072;11.616;2022-12-18T05:49:09;48.83;;;26.63;;
9224;SDS011;4647;48.072;11.616;2022-12-18T05:51:35;49.73;;;26.53;;
9224;SDS011;4647;48.072;11.616;2022-12-18T05:54:02;53.23;;;27.57;;
9224;SDS011;4647;48.072;11.616;2022-12-18T05:56:29;48.07;;;27.10;;
9224;SDS011;4647;48.072;11.616;2022-12-18T05:58:56;55.63;;;28.00;;
9224;SDS011;4647;48.072;11.616;2022-12-18T06:01:25;52.60;;;28.57;;
9224;SDS011;4647;48.072;11.616;2022-12-18T06:03:53;52.23;;;25.20;;
9224;SDS011;4647;48.072;11.616;2022-12-18T06:06:21;54.27;;;27.83;;
9224;SDS011;4647;48.072;11.616;2022-12-18T06:08:50;54.10;;;26.97;;
9224;SDS011;4647;48.072;11.616;2022-12-18T06:11:17;50.93;;;27.33;;
9224;SDS011;4647;48.072;11.616;2022-12-18T06:13:46;53.70;;;27.40;;
9224;SDS011;4647;48.072;11.616;2022-12-18T06:16:15;49.03;;;24.50;;
9224;SDS011;4647;48.072;11.616;2022-12-18T06:18:44;50.73;;;26.50;;
9224;SDS011;4647;48.072;11.616;2022-12-18T06:21:11;51.87;;;26.33;;
9224;SDS011;4647;48.072;11.616;2022-12-18T06:23:38;53.97;;;27.10;;
9224;SDS011;4647;48.072;11.616;2022-12-18T06:26:05;51.20;;;25.43;;
9224;SDS011;4647;48.072;11.616;2022-12-18T06:28:32;54.00;;;27.20;;
9224;SDS011;4647;48.072;11.616;2022-12-18T06:30:59;52.93;;;27.87;;
9224;SDS011;4647;48.072;11.616;2022-12-18T06:33:26;55.83;;;27.63;;
9224;SDS011;4647;48.072;11.616;2022-12-18T06:35:58;47.83;;;24.73;;
9224;SDS011;4647;48.072;11.616;2022-12-18T06:38:26;59.70;;;27.77;;
9224;SDS011;4647;48.072;11.616;2022-12-18T06:40:53;54.23;;;27.17;;
9224;SDS011;4647;48.072;11.616;2022-12-18T06:43:20;55.73;;;26.53;;
9224;SDS011;4647;48.072;11.616;2022-12-18T06:45:47;55.10;;;27.77;;
9224;SDS011;4647;48.072;11.616;2022-12-18T06:48:17;52.70;;;26.17;;
9224;SDS011;4647;48.072;11.616;2022-12-18T06:50:44;54.67;;;27.23;;
9224;SDS011;4647;48.072;11.616;2022-12-18T06:53:13;51.63;;;27.03;;
9224;SDS011;4647;48.072;11.616;2022-12-18T06:55:40;48.27;;;25.37;;
9224;SDS011;4647;48.072;11.616;2022-12-18T06:58:06;52.50;;;27.33;;
9224;SDS011;4647;48.072;11.616;2022-12-18T07:00:33;52.03;;;25.30;;
9224;SDS011;4647;48.072;11.616;2022-12-18T07:03:00;50.27;;;25.27;;
9224;SDS011;4647;48.072;11.616;2022-12-18T07:05:27;51.33;;;25.23;;
9224;SDS011;4647;48.072;11.616;2022-12-18T07:07:54;53.87;;;26.23;;
9224;SDS011;4647;48.072;11.616;2022-12-18T07:10:22;52.23;;;26.27;;
9224;SDS011;4647;48.072;11.616;2022-12-18T07:12:49;46.87;;;24.33;;
9224;SDS011;4647;48.072;11.616;2022-12-18T07:15:16;51.03;;;26.13;;
9224;SDS011;4647;48.072;11.616;2022-12-18T07:17:43;49.47;;;26.97;;
9224;SDS011;4647;48.072;11.616;2022-12-18T07:20:10;51.87;;;26.83;;
9224;SDS011;4647;48.072;11.616;2022-12-18T07:22:37;49.60;;;26.27;;
9224;SDS011;4647;48.072;11.616;2022-12-18T07:25:04;53.53;;;26.53;;
9224;SDS011;4647;48.072;11.616;2022-12-18T07:27:33;53.67;;;26.43;;
9224;SDS011;4647;48.072;11.616;2022-12-18T07:30:00;54.20;;;25.97;;
9224;SDS011;4647;48.072;11.616;2022-12-18T07:32:27;54.87;;;26.90;;
9224;SDS011;4647;48.072;11.616;2022-12-18T07:34:56;52.00;;;25.93;;
9224;SDS011;4647;48.072;11.616;2022-12-18T07:37:22;53.53;;;25.93;;
9224;SDS011;4647;48.072;11.616;2022-12-18T07:39:49;55.40;;;26.80;;
9224;SDS011;4647;48.072;11.616;2022-12-18T07:42:16;49.43;;;25.77;;
9224;SDS011;4647;48.072;11.616;2022-12-18T07:44:59;48.23;;;25.57;;
9224;SDS011;4647;48.072;11.616;2022-12-18T07:47:27;50.10;;;25.13;;
9224;SDS011;4647;48.072;11.616;2022-12-18T07:49:56;55.17;;;27.67;;
9224;SDS011;4647;48.072;11.616;2022-12-18T07:52:23;52.67;;;26.47;;
9224;SDS011;4647;48.072;11.616;2022-12-18T07:54:50;51.83;;;27.33;;
9224;SDS011;4647;48.072;11.616;2022-12-18T07:57:17;50.33;;;25.50;;
9224;SDS011;4647;48.072;11.616;2022-12-18T07:59:44;54.73;;;26.37;;
9224;SDS011;4647;48.072;11.616;2022-12-18T08:02:12;59.60;;;28.30;;
9224;SDS011;4647;48.072;11.616;2022-12-18T08:04:39;49.80;;;26.07;;
9224;SDS011;4647;48.072;11.616;2022-12-18T08:07:06;68.60;;;30.57;;
9224;SDS011;4647;48.072;11.616;2022-12-18T08:09:33;46.70;;;24.50;;
9224;SDS011;4647;48.072;11.616;2022-12-18T08:12:00;49.87;;;25.60;;
9224;SDS011;4647;48.072;11.616;2022-12-18T08:14:27;45.53;;;24.23;;
9224;SDS011;4647;48.072;11.616;2022-12-18T08:16:53;47.03;;;24.53;;
9224;SDS011;4647;48.072;11.616;2022-12-18T08:19:22;46.37;;;23.40;;
9224;SDS011;4647;48.072;11.616;2022-12-18T08:21:48;46.10;;;23.30;;
9224;SDS011;4647;48.072;11.616;2022-12-18T08:24:15;47.73;;;24.67;;
9224;SDS011;4647;48.072;11.616;2022-12-18T08:26:42;40.90;;;22.07;;
9224;SDS011;4647;48.072;11.616;2022-12-18T08:29:09;44.00;;;24.10;;
9224;SDS011;4647;48.072;11.616;2022-12-18T08:31:36;45.37;;;23.10;;
9224;SDS011;4647;48.072;11.616;2022-12-18T08:34:03;44.53;;;23.07;;
9224;SDS011;4647;48.072;11.616;2022-12-18T08:36:31;44.93;;;23.80;;
9224;SDS011;4647;48.072;11.616;2022-12-18T08:38:58;44.93;;;23.47;;
9224;SDS011;4647;48.072;11.616;2022-12-18T08:41:25;42.10;;;23.47;;
9224;SDS011;4647;48.072;11.616;2022-12-18T08:43:52;45.27;;;23.47;;
9224;SDS011;4647;48.072;11.616;2022-12-18T08:46:37;42.97;;;23.13;;
9224;SDS011;4647;48.072;11.616;2022-12-18T08:49:05;41.50;;;21.47;;
9224;SDS011;4647;48.072;11.616;2022-12-18T08:51:35;40.27;;;22.77;;
9224;SDS011;4647;48.072;11.616;2022-12-18T08:54:02;39.83;;;21.17;;
9224;SDS011;4647;48.072;11.616;2022-12-18T08:56:29;40.20;;;22.07;;
9224;SDS011;4647;48.072;11.616;2022-12-18T08:58:56;40.57;;;21.93;;
9224;SDS011;4647;48.072;11.616;2022-12-18T09:01:23;41.10;;;22.23;;
9224;SDS011;4647;48.072;11.616;2022-12-18T09:03:50;39.80;;;20.47;;
9224;SDS011;4647;48.072;11.616;2022-12-18T09:06:18;41.90;;;21.50;;
9224;SDS011;4647;48.072;11.616;2022-12-18T09:08:47;35.80;;;20.60;;
9224;SDS011;4647;48.072;11.616;2022-12-18T09:11:17;38.40;;;20.77;;
9224;SDS011;4647;48.072;11.616;2022-12-18T09:13:46;39.50;;;21.00;;
9224;SDS011;4647;48.072;11.616;2022-12-18T09:16:13;36.03;;;20.47;;
9224;SDS011;4647;48.072;11.616;2022-12-18T09:18:41;39.37;;;20.83;;
9224;SDS011;4647;48.072;11.616;2022-12-18T09:21:09;38.13;;;20.20;;
9224;SDS011;4647;48.072;11.616;2022-12-18T09:23:36;36.57;;;20.63;;
9224;SDS011;4647;48.072;11.616;2022-12-18T09:26:05;39.03;;;20.00;;
9224;SDS011;4647;48.072;11.616;2022-12-18T09:28:32;40.07;;;20.80;;
9224;SDS011;4647;48.072;11.616;2022-12-18T09:31:02;36.37;;;21.53;;
9224;SDS011;4647;48.072;11.616;2022-12-18T09:33:31;35.97;;;20.17;;
9224;SDS011;4647;48.072;11.616;2022-12-18T09:36:00;37.73;;;20.80;;
9224;SDS011;4647;48.072;11.616;2022-12-18T09:38:28;36.23;;;19.87;;
9224;SDS011;4647;48.072;11.616;2022-12-18T09:40:56;38.60;;;20.43;;
9224;SDS011;4647;48.072;11.616;2022-12-18T09:43:28;39.83;;;21.27;;
9224;SDS011;4647;48.072;11.616;2022-12-18T09:46:01;36.87;;;20.97;;
9224;SDS011;4647;48.072;11.616;2022-12-18T09:48:32;38.07;;;21.03;;
9224;SDS011;4647;48.072;11.616;2022-12-18T09:51:02;34.73;;;20.27;;
9224;SDS011;4647;48.072;11.616;2022-12-18T09:53:35;36.13;;;20.17;;
9224;SDS011;4647;48.072;11.616;2022-12-18T09:56:05;34.20;;;19.60;;
9224;SDS011;4647;48.072;11.616;2022-12-18T09:58:39;37.50;;;19.53;;
9224;SDS011;4647;48.072;11.616;2022-12-18T10:01:09;35.57;;;20.17;;
9224;SDS011;4647;48.072;11.616;2022-12-18T10:03:36;34.30;;;18.73;;
9224;SDS011;4647;48.072;11.616;2022-12-18T10:06:05;32.03;;;18.47;;
9224;SDS011;4647;48.072;11.616;2022-12-18T10:08:41;31.97;;;19.17;;
9224;SDS011;4647;48.072;11.616;2022-12-18T10:11:19;30.53;;;17.40;;
9224;SDS011;4647;48.072;11.616;2022-12-18T10:13:54;32.60;;;18.90;;
9224;SDS011;4647;48.072;11.616;2022-12-18T10:16:29;33.50;;;18.87;;
9224;SDS011;4647;48.072;11.616;2022-12-18T10:19:12;35.20;;;18.73;;
9224;SDS011;4647;48.072;11.616;2022-12-18T10:21:51;30.07;;;18.87;;
9224;SDS011;4647;48.072;11.616;2022-12-18T10:24:30;27.77;;;16.50;;
9224;SDS011;4647;48.072;11.616;2022-12-18T10:27:08;30.47;;;17.13;;
9224;SDS011;4647;48.072;11.616;2022-12-18T10:29:41;28.33;;;15.17;;
9224;SDS011;4647;48.072;11.616;2022-12-18T10:32:13;32.63;;;18.07;;
9224;SDS011;4647;48.072;11.616;2022-12-18T10:34:44;31.83;;;18.13;;
9224;SDS011;4647;48.072;11.616;2022-12-18T10:37:14;34.37;;;17.43;;
9224;SDS011;4647;48.072;11.616;2022-12-18T10:39:43;29.77;;;18.17;;
9224;SDS011;4647;48.072;11.616;2022-12-18T10:42:11;31.17;;;17.40;;
9224;SDS011;4647;48.072;11.616;2022-12-18T10:44:44;31.47;;;16.83;;
9224;SDS011;4647;48.072;11.616;2022-12-18T10:47:12;30.70;;;17.30;;
9224;SDS011;4647;48.072;11.616;2022-12-18T10:49:42;29.13;;;16.70;;
9224;SDS011;4647;48.072;11.616;2022-12-18T10:52:15;31.60;;;18.27;;
9224;SDS011;4647;48.072;11.616;2022-12-18T10:54:46;31.33;;;17.60;;
9224;SDS011;4647;48.072;11.616;2022-12-18T10:57:16;30.83;;;16.93;;
9224;SDS011;4647;48.072;11.616;2022-12-18T10:59:57;34.73;;;18.63;;
9224;SDS011;4647;48.072;11.616;2022-12-18T11:02:26;30.37;;;18.03;;
9224;SDS011;4647;48.072;11.616;2022-12-18T11:04:59;29.83;;;17.63;;
9224;SDS011;4647;48.072;11.616;2022-12-18T11:07:30;30.63;;;18.77;;
9224;SDS011;4647;48.072;11.616;2022-12-18T11:10:16;29.10;;;17.80;;
9224;SDS011;4647;48.072;11.616;2022-12-18T11:12:43;33.00;;;18.00;;
9224;SDS011;4647;48.072;11.616;2022-12-18T11:15:15;30.37;;;17.70;;
9224;SDS011;4647;48.072;11.616;2022-12-18T11:17:44;30.87;;;17.67;;
9224;SDS011;4647;48.072;11.616;2022-12-18T11:20:24;30.73;;;18.13;;
9224;SDS011;4647;48.072;11.616;2022-12-18T11:22:58;29.30;;;17.70;;
9224;SDS011;4647;48.072;11.616;2022-12-18T11:25:29;31.43;;;18.27;;
9224;SDS011;4647;48.072;11.616;2022-12-18T11:27:59;33.73;;;19.87;;
9224;SDS011;4647;48.072;11.616;2022-12-18T11:30:29;32.27;;;18.13;;
9224;SDS011;4647;48.072;11.616;2022-12-18T11:33:02;33.33;;;18.47;;
9224;SDS011;4647;48.072;11.616;2022-12-18T11:35:37;27.70;;;16.83;;
9224;SDS011;4647;48.072;11.616;2022-12-18T11:38:15;29.40;;;17.23;;
9224;SDS011;4647;48.072;11.616;2022-12-18T11:40:47;29.33;;;17.67;;
9224;SDS011;4647;48.072;11.616;2022-12-18T11:43:22;31.07;;;17.30;;
9224;SDS011;4647;48.072;11.616;2022-12-18T11:45:56;32.50;;;18.30;;
9224;SDS011;4647;48.072;11.616;2022-12-18T11:48:28;34.13;;;18.30;;
9224;SDS011;4647;48.072;11.616;2022-12-18T11:50:59;33.07;;;17.80;;
9224;SDS011;4647;48.072;11.616;2022-12-18T11:53:30;31.37;;;18.70;;
9224;SDS011;4647;48.072;11.616;2022-12-18T11:56:00;30.70;;;17.67;;
9224;SDS011;4647;48.072;11.616;2022-12-18T11:58:41;31.80;;;17.67;;
9224;SDS011;4647;48.072;11.616;2022-12-18T12:01:18;31.50;;;18.47;;
9224;SDS011;4647;48.072;11.616;2022-12-18T12:04:01;29.10;;;16.50;;
9224;SDS011;4647;48.072;11.616;2022-12-18T12:06:53;28.70;;;15.83;;
9224;SDS011;4647;48.072;11.616;2022-12-18T12:09:28;30.27;;;16.90;;
9224;SDS011;4647;48.072;11.616;2022-12-18T12:12:08;31.07;;;17.57;;
9224;SDS011;4647;48.072;11.616;2022-12-18T12:14:47;30.50;;;16.23;;
9224;SDS011;4647;48.072;11.616;2022-12-18T12:17:24;28.87;;;16.53;;
9224;SDS011;4647;48.072;11.616;2022-12-18T12:19:58;28.13;;;16.70;;
9224;SDS011;4647;48.072;11.616;2022-12-18T12:22:35;31.07;;;16.70;;
9224;SDS011;4647;48.072;11.616;2022-12-18T12:25:13;31.53;;;17.77;;
9224;SDS011;4647;48.072;11.616;2022-12-18T12:27:49;27.43;;;16.47;;
9224;SDS011;4647;48.072;11.616;2022-12-18T12:30:27;28.90;;;16.60;;
9224;SDS011;4647;48.072;11.616;2022-12-18T12:33:05;29.73;;;16.33;;
9224;SDS011;4647;48.072;11.616;2022-12-18T12:35:46;28.93;;;16.80;;
9224;SDS011;4647;48.072;11.616;2022-12-18T12:38:19;28.47;;;16.67;;
9224;SDS011;4647;48.072;11.616;2022-12-18T12:40:52;27.83;;;16.80;;
9224;SDS011;4647;48.072;11.616;2022-12-18T12:43:27;27.57;;;16.70;;
9224;SDS011;4647;48.072;11.616;2022-12-18T12:46:03;29.20;;;18.37;;
9224;SDS011;4647;48.072;11.616;2022-12-18T12:48:35;25.77;;;15.60;;
9224;SDS011;4647;48.072;11.616;2022-12-18T12:51:08;31.37;;;17.43;;
9224;SDS011;4647;48.072;11.616;2022-12-18T12:53:39;31.30;;;17.43;;
9224;SDS011;4647;48.072;11.616;2022-12-18T12:56:07;27.87;;;17.73;;
9224;SDS011;4647;48.072;11.616;2022-12-18T12:58:38;29.73;;;17.23;;
9224;SDS011;4647;48.072;11.616;2022-12-18T13:01:16;31.63;;;18.53;;
9224;SDS011;4647;48.072;11.616;2022-12-18T13:03:54;32.13;;;18.67;;
9224;SDS011;4647;48.072;11.616;2022-12-18T13:06:39;38.00;;;19.93;;
9224;SDS011;4647;48.072;11.616;2022-12-18T13:09:09;34.73;;;18.20;;
9224;SDS011;4647;48.072;11.616;2022-12-18T13:11:37;27.73;;;16.77;;
9224;SDS011;4647;48.072;11.616;2022-12-18T13:14:24;28.03;;;17.27;;
9224;SDS011;4647;48.072;11.616;2022-12-18T13:20:02;32.07;;;18.23;;
9224;SDS011;4647;48.072;11.616;2022-12-18T13:22:34;31.73;;;17.90;;
9224;SDS011;4647;48.072;11.616;2022-12-18T13:25:03;35.10;;;19.47;;
9224;SDS011;4647;48.072;11.616;2022-12-18T13:27:58;36.83;;;19.43;;
9224;SDS011;4647;48.072;11.616;2022-12-18T13:30:41;33.13;;;18.10;;
9224;SDS011;4647;48.072;11.616;2022-12-18T13:36:15;30.03;;;18.47;;
9224;SDS011;4647;48.072;11.616;2022-12-18T13:39:11;34.47;;;20.03;;
9224;SDS011;4647;48.072;11.616;2022-12-18T13:45:38;33.93;;;18.47;;
9224;SDS011;4647;48.072;11.616;2022-12-18T13:48:16;33.33;;;19.40;;
9224;SDS011;4647;48.072;11.616;2022-12-18T13:50:49;28.90;;;18.07;;
9224;SDS011;4647;48.072;11.616;2022-12-18T13:53:21;33.63;;;18.90;;
9224;SDS011;4647;48.072;11.616;2022-12-18T13:55:50;33.27;;;17.97;;
9224;SDS011;4647;48.072;11.616;2022-12-18T13:58:17;32.03;;;19.00;;
9224;SDS011;4647;48.072;11.616;2022-12-18T14:00:44;33.10;;;18.77;;
9224;SDS011;4647;48.072;11.616;2022-12-18T14:03:19;33.20;;;19.37;;
9224;SDS011;4647;48.072;11.616;2022-12-18T14:05:52;34.57;;;20.03;;
9224;SDS011;4647;48.072;11.616;2022-12-18T14:08:26;37.13;;;20.33;;
9224;SDS011;4647;48.072;11.616;2022-12-18T14:10:59;32.90;;;19.53;;
9224;SDS011;4647;48.072;11.616;2022-12-18T14:13:28;33.77;;;19.13;;
9224;SDS011;4647;48.072;11.616;2022-12-18T14:15:56;36.10;;;20.63;;
9224;SDS011;4647;48.072;11.616;2022-12-18T14:18:26;36.63;;;20.50;;
9224;SDS011;4647;48.072;11.616;2022-12-18T14:21:00;36.67;;;20.67;;
9224;SDS011;4647;48.072;11.616;2022-12-18T14:23:31;35.90;;;20.53;;
9224;SDS011;4647;48.072;11.616;2022-12-18T14:26:00;33.97;;;19.50;;
9224;SDS011;4647;48.072;11.616;2022-12-18T14:28:28;36.73;;;21.33;;
9224;SDS011;4647;48.072;11.616;2022-12-18T14:30:55;34.53;;;19.70;;
9224;SDS011;4647;48.072;11.616;2022-12-18T14:33:23;35.63;;;19.13;;
9224;SDS011;4647;48.072;11.616;2022-12-18T14:35:53;38.97;;;20.77;;
9224;SDS011;4647;48.072;11.616;2022-12-18T14:38:27;35.87;;;20.70;;
9224;SDS011;4647;48.072;11.616;2022-12-18T14:41:00;38.33;;;20.23;;
9224;SDS011;4647;48.072;11.616;2022-12-18T14:43:28;36.97;;;19.77;;
9224;SDS011;4647;48.072;11.616;2022-12-18T14:45:57;42.37;;;20.27;;
9224;SDS011;4647;48.072;11.616;2022-12-18T14:48:32;36.27;;;19.53;;
9224;SDS011;4647;48.072;11.616;2022-12-18T14:51:02;34.73;;;20.07;;
9224;SDS011;4647;48.072;11.616;2022-12-18T14:53:35;32.00;;;18.40;;
9224;SDS011;4647;48.072;11.616;2022-12-18T14:56:10;41.43;;;21.07;;
9224;SDS011;4647;48.072;11.616;2022-12-18T14:58:44;39.93;;;21.00;;
9224;SDS011;4647;48.072;11.616;2022-12-18T15:01:22;39.13;;;20.07;;
9224;SDS011;4647;48.072;11.616;2022-12-18T15:03:51;38.47;;;20.57;;